createdAt,value
2022-11-11T00:01:31.427Z,18.05
2022-11-11T00:03:57.754Z,13.50
2022-11-11T00:06:24.101Z,15.95
2022-11-11T00:08:50.493Z,22.63
2022-11-11T00:11:16.896Z,11.30
2022-11-11T00:13:43.824Z,14.10
2022-11-11T00:16:12.103Z,14.18
2022-11-11T00:18:57.717Z,21.90
2022-11-11T00:21:27.307Z,22.33
2022-11-11T00:24:12.430Z,13.60
2022-11-11T00:26:40.364Z,10.55
2022-11-11T00:29:07.038Z,14.43
2022-11-11T00:31:35.177Z,16.38
2022-11-11T00:34:01.933Z,10.70
2022-11-11T00:36:28.246Z,13.55
2022-11-11T00:38:55.883Z,13.00
2022-11-11T00:41:23.842Z,20.65
2022-11-11T00:43:50.175Z,13.10
2022-11-11T00:46:35.313Z,17.35
2022-11-11T00:49:20.130Z,9.73
2022-11-11T00:51:47.033Z,10.95
2022-11-11T00:54:13.345Z,13.23
2022-11-11T00:56:39.973Z,11.38
2022-11-11T00:59:07.187Z,15.80
2022-11-11T01:01:34.789Z,16.20
2022-11-11T01:04:01.732Z,20.35
2022-11-11T01:06:28.221Z,13.73
2022-11-11T01:08:54.776Z,14.63
2022-11-11T01:11:22.234Z,20.80
2022-11-11T01:13:48.609Z,21.48
2022-11-11T01:16:16.409Z,14.27
2022-11-11T01:18:42.711Z,15.27
2022-11-11T01:21:11.743Z,14.93
2022-11-11T01:23:39.074Z,15.25
2022-11-11T01:26:14.238Z,11.18
2022-11-11T01:28:40.548Z,13.40
2022-11-11T01:31:08.581Z,12.70
2022-11-11T01:33:35.104Z,18.38
2022-11-11T01:36:05.654Z,12.02
2022-11-11T01:38:32.039Z,10.95
2022-11-11T01:40:58.586Z,16.92
2022-11-11T01:43:25.382Z,18.00
2022-11-11T01:46:03.618Z,12.00
2022-11-11T01:48:52.288Z,13.75
2022-11-11T01:51:33.386Z,11.70
2022-11-11T01:54:01.259Z,25.83
2022-11-11T01:56:27.702Z,10.93
2022-11-11T01:58:55.960Z,16.30
2022-11-11T02:01:22.469Z,14.43
2022-11-11T02:04:08.181Z,18.23
2022-11-11T02:06:34.891Z,14.75
2022-11-11T02:09:02.474Z,26.48
2022-11-11T02:11:47.817Z,16.55
2022-11-11T02:14:33.328Z,20.35
2022-11-11T02:17:00.275Z,16.33
2022-11-11T02:19:35.157Z,22.13
2022-11-11T02:22:02.786Z,14.00
2022-11-11T02:24:30.327Z,23.85
2022-11-11T02:26:58.674Z,16.67
2022-11-11T02:29:26.009Z,19.70
2022-11-11T02:31:52.367Z,17.15
2022-11-11T02:34:18.698Z,28.75
2022-11-11T02:36:45.316Z,20.10
2022-11-11T02:39:11.827Z,21.02
2022-11-11T02:41:56.722Z,15.23
2022-11-11T02:44:23.558Z,14.30
2022-11-11T02:46:49.967Z,13.68
2022-11-11T02:49:16.449Z,18.13
2022-11-11T02:51:42.896Z,14.27
2022-11-11T02:54:09.353Z,21.50
2022-11-11T02:56:54.441Z,20.83
2022-11-11T02:59:22.293Z,24.67
2022-11-11T03:01:48.862Z,18.17
2022-11-11T03:04:15.252Z,24.17
2022-11-11T03:06:41.728Z,16.88
2022-11-11T03:09:08.178Z,17.58
2022-11-11T03:11:38.480Z,22.02
2022-11-11T03:16:50.446Z,27.85
2022-11-11T03:19:16.800Z,20.45
2022-11-11T03:24:49.918Z,23.20
2022-11-11T03:27:16.349Z,22.48
2022-11-11T03:29:43.020Z,21.92
2022-11-11T03:32:09.854Z,23.88
2022-11-11T03:34:36.344Z,23.95
2022-11-11T03:37:22.150Z,23.10
2022-11-11T03:39:48.441Z,24.60
2022-11-11T03:42:14.795Z,15.80
2022-11-11T03:44:41.077Z,22.75
2022-11-11T03:47:07.362Z,18.40
2022-11-11T03:49:33.719Z,29.25
2022-11-11T03:52:00.061Z,27.80
2022-11-11T03:54:26.325Z,18.67
2022-11-11T03:56:52.851Z,19.98
2022-11-11T03:59:19.136Z,17.13
2022-11-11T04:02:04.341Z,18.73
2022-11-11T04:04:49.366Z,18.92
2022-11-11T04:07:34.151Z,14.80
2022-11-11T04:10:18.850Z,19.83
2022-11-11T04:13:03.650Z,23.27
2022-11-11T04:15:48.475Z,22.88
2022-11-11T04:18:14.812Z,24.17
2022-11-11T04:21:01.137Z,28.33
2022-11-11T04:23:27.421Z,16.77
2022-11-11T04:25:55.492Z,15.27
2022-11-11T04:28:40.590Z,25.08
2022-11-11T04:31:06.861Z,19.58
2022-11-11T04:33:33.141Z,20.15
2022-11-11T04:35:59.428Z,19.15
2022-11-11T04:38:44.097Z,27.90
2022-11-11T04:41:11.181Z,24.40
2022-11-11T04:43:57.442Z,19.60
2022-11-11T04:46:23.735Z,16.35
2022-11-11T04:48:50.022Z,17.80
2022-11-11T04:51:16.298Z,14.43
2022-11-11T04:53:42.582Z,14.23
2022-11-11T04:56:27.319Z,17.25
2022-11-11T04:59:13.621Z,20.83
2022-11-11T05:01:58.312Z,14.80
2022-11-11T05:04:24.645Z,20.88
2022-11-11T05:07:09.514Z,23.63
2022-11-11T05:09:35.954Z,19.60
2022-11-11T05:12:02.257Z,25.80
2022-11-11T05:14:46.991Z,21.23
2022-11-11T05:17:31.768Z,20.20
2022-11-11T05:20:16.435Z,19.42
2022-11-11T05:22:43.514Z,21.85
2022-11-11T05:25:26.119Z,17.63
2022-11-11T05:27:53.370Z,20.05
2022-11-11T05:30:20.381Z,22.88
2022-11-11T05:32:46.735Z,21.02
2022-11-11T05:35:13.471Z,23.95
2022-11-11T05:37:40.156Z,26.13
2022-11-11T05:40:07.089Z,27.40
2022-11-11T05:42:33.457Z,17.40
2022-11-11T05:44:59.728Z,18.92
2022-11-11T05:47:26.501Z,21.08
2022-11-11T05:49:52.867Z,20.17
2022-11-11T05:52:19.162Z,18.58
2022-11-11T05:54:45.739Z,13.73
2022-11-11T05:57:12.036Z,25.23
2022-11-11T05:59:38.324Z,18.08
2022-11-11T06:02:04.648Z,18.55
2022-11-11T06:04:31.669Z,23.35
2022-11-11T06:06:58.131Z,18.73
2022-11-11T06:09:24.435Z,25.60
2022-11-11T06:11:50.709Z,21.40
2022-11-11T06:14:17.045Z,24.55
2022-11-11T06:16:43.332Z,19.33
2022-11-11T06:19:09.703Z,16.25
2022-11-11T06:21:55.956Z,19.02
2022-11-11T06:24:26.149Z,12.93
2022-11-11T06:26:53.065Z,14.35
2022-11-11T06:29:19.342Z,20.13
2022-11-11T06:31:45.652Z,15.73
2022-11-11T06:34:12.132Z,22.30
2022-11-11T06:36:38.417Z,20.30
2022-11-11T06:39:04.946Z,16.50
2022-11-11T06:41:31.255Z,18.08
2022-11-11T06:43:57.544Z,15.93
2022-11-11T06:46:24.734Z,17.95
2022-11-11T06:48:51.145Z,15.98
2022-11-11T06:51:17.759Z,16.63
2022-11-11T06:53:44.452Z,23.90
2022-11-11T06:56:12.589Z,10.48
2022-11-11T06:58:38.988Z,15.32
2022-11-11T07:01:05.950Z,11.75
2022-11-11T07:03:32.648Z,13.43
2022-11-11T07:06:00.640Z,16.48
2022-11-11T07:08:27.499Z,12.13
2022-11-11T07:10:54.080Z,19.02
2022-11-11T07:13:20.370Z,11.60
2022-11-11T07:15:46.878Z,12.07
2022-11-11T07:18:13.206Z,15.38
2022-11-11T07:20:39.626Z,10.40
2022-11-11T07:23:06.100Z,13.63
2022-11-11T07:25:32.673Z,9.52
2022-11-11T07:27:59.693Z,9.52
2022-11-11T07:30:26.472Z,13.48
2022-11-11T07:32:53.855Z,9.95
2022-11-11T07:35:20.918Z,9.80
2022-11-11T07:37:47.286Z,14.32
2022-11-11T07:40:14.720Z,10.48
2022-11-11T07:42:41.444Z,10.05
2022-11-11T07:45:08.637Z,9.02
2022-11-11T07:47:35.237Z,13.68
2022-11-11T07:50:07.435Z,14.48
2022-11-11T07:52:34.413Z,10.30
2022-11-11T07:55:00.870Z,13.27
2022-11-11T07:57:27.314Z,17.63
2022-11-11T07:59:53.703Z,13.30
2022-11-11T08:02:20.092Z,8.20
2022-11-11T08:04:48.910Z,12.95
2022-11-11T08:07:22.533Z,18.60
2022-11-11T08:09:49.430Z,14.70
2022-11-11T08:12:34.542Z,8.43
2022-11-11T08:15:06.310Z,9.50
2022-11-11T08:17:36.798Z,8.65
2022-11-11T08:20:03.186Z,12.63
2022-11-11T08:22:29.577Z,9.68
2022-11-11T08:25:03.269Z,13.23
2022-11-11T08:27:30.120Z,7.50
2022-11-11T08:29:56.418Z,10.27
2022-11-11T08:32:22.706Z,16.45
2022-11-11T08:34:49.012Z,25.85
2022-11-11T08:37:16.371Z,17.63
2022-11-11T08:39:42.662Z,15.07
2022-11-11T08:42:08.926Z,13.27
2022-11-11T08:44:35.265Z,8.07
2022-11-11T08:47:01.560Z,7.28
2022-11-11T08:49:27.863Z,9.15
2022-11-11T08:51:54.145Z,5.63
2022-11-11T08:54:20.441Z,8.00
2022-11-11T08:56:46.763Z,7.38
2022-11-11T08:59:13.043Z,6.28
2022-11-11T09:01:39.534Z,9.43
2022-11-11T09:04:37.783Z,7.97
2022-11-11T09:06:52.355Z,6.90
2022-11-11T09:09:18.674Z,8.07
2022-11-11T09:11:45.142Z,10.15
2022-11-11T09:14:11.436Z,9.32
2022-11-11T09:16:37.704Z,9.70
2022-11-11T09:19:04.071Z,7.75
2022-11-11T09:21:30.446Z,9.05
2022-11-11T09:23:56.729Z,9.60
2022-11-11T09:26:23.045Z,5.32
2022-11-11T09:28:49.333Z,12.98
2022-11-11T09:31:43.280Z,11.68
2022-11-11T09:34:02.002Z,11.18
2022-11-11T09:36:29.134Z,11.63
2022-11-11T09:38:55.417Z,8.95
2022-11-11T09:41:24.936Z,11.77
2022-11-11T09:43:51.222Z,13.02
2022-11-11T09:46:36.519Z,6.43
2022-11-11T09:49:21.737Z,7.38
2022-11-11T09:51:48.038Z,5.90
2022-11-11T09:54:22.752Z,7.22
2022-11-11T09:56:49.529Z,8.00
2022-11-11T09:59:25.708Z,6.57
2022-11-11T10:01:56.666Z,4.47
2022-11-11T10:04:26.182Z,5.80
2022-11-11T10:06:57.492Z,5.90
2022-11-11T10:09:33.663Z,10.02
2022-11-11T10:11:59.903Z,8.40
2022-11-11T10:14:33.016Z,6.45
2022-11-11T10:17:06.521Z,9.25
2022-11-11T10:19:50.872Z,4.63
2022-11-11T10:22:21.960Z,6.43
2022-11-11T10:25:01.702Z,4.85
2022-11-11T10:27:28.364Z,6.18
2022-11-11T10:29:55.040Z,6.93
2022-11-11T10:32:28.353Z,3.17
2022-11-11T10:34:55.406Z,6.25
2022-11-11T10:37:24.413Z,8.55
2022-11-11T10:40:06.300Z,6.18
2022-11-11T10:42:32.677Z,9.75
2022-11-11T10:45:03.933Z,6.38
2022-11-11T10:47:35.228Z,2.85
2022-11-11T10:50:13.863Z,4.50
2022-11-11T10:52:41.777Z,5.38
2022-11-11T10:55:22.558Z,6.43
2022-11-11T10:57:54.260Z,4.95
2022-11-11T11:00:20.564Z,5.00
2022-11-11T11:02:50.110Z,4.28
2022-11-11T11:05:27.851Z,3.67
2022-11-11T11:07:56.886Z,4.03
2022-11-11T11:10:26.741Z,2.67
2022-11-11T11:15:23.458Z,3.63
2022-11-11T11:18:06.469Z,2.47
2022-11-11T11:20:32.853Z,3.83
2022-11-11T11:23:01.334Z,8.50
2022-11-11T11:25:29.858Z,2.45
2022-11-11T11:28:25.600Z,3.92
2022-11-11T11:30:59.557Z,2.92
2022-11-11T11:33:25.845Z,4.38
2022-11-11T11:35:52.130Z,6.15
2022-11-11T11:38:19.032Z,3.67
2022-11-11T11:40:46.658Z,3.65
2022-11-11T11:43:24.898Z,4.85
2022-11-11T11:45:55.573Z,4.57
2022-11-11T11:48:31.314Z,4.28
2022-11-11T11:51:20.112Z,8.55
2022-11-11T11:53:46.618Z,2.70
2022-11-11T11:56:31.333Z,4.15
2022-11-11T11:58:57.701Z,4.00
2022-11-11T12:01:36.297Z,7.10
2022-11-11T12:04:05.630Z,3.55
2022-11-11T12:06:51.113Z,1.90
2022-11-11T12:09:22.697Z,5.68
2022-11-11T12:12:01.012Z,2.17
2022-11-11T12:14:33.148Z,2.38
2022-11-11T12:17:04.906Z,6.22
2022-11-11T12:19:31.168Z,4.00
2022-11-11T12:22:16.299Z,2.95
2022-11-11T12:24:42.605Z,3.25
2022-11-11T12:27:31.999Z,4.95
2022-11-11T12:30:11.900Z,3.03
2022-11-11T12:32:38.131Z,1.77
2022-11-11T12:35:19.371Z,3.33
2022-11-11T12:37:45.684Z,2.75
2022-11-11T12:40:22.253Z,4.93
2022-11-11T12:42:48.551Z,4.13
2022-11-11T12:45:26.688Z,1.85
2022-11-11T12:48:17.053Z,1.50
2022-11-11T12:50:53.339Z,3.13
2022-11-11T12:53:26.346Z,1.30
2022-11-11T12:56:14.307Z,6.20
2022-11-11T12:58:43.676Z,1.88
2022-11-11T13:01:18.292Z,2.40
2022-11-11T13:03:50.825Z,1.23
2022-11-11T13:06:32.523Z,3.78
2022-11-11T13:09:01.948Z,2.05
2022-11-11T13:11:37.137Z,2.30
2022-11-11T13:14:31.165Z,2.05
2022-11-11T13:17:00.306Z,1.40
2022-11-11T13:19:45.484Z,5.32
2022-11-11T13:22:25.983Z,2.40
2022-11-11T13:24:53.879Z,7.80
2022-11-11T13:27:27.862Z,2.40
2022-11-11T13:29:54.113Z,4.57
2022-11-11T13:32:24.541Z,1.15
2022-11-11T13:34:51.089Z,4.30
2022-11-11T13:37:28.881Z,1.75
2022-11-11T13:40:04.595Z,3.33
2022-11-11T13:42:35.168Z,1.67
2022-11-11T13:45:03.296Z,3.40
2022-11-11T13:47:34.473Z,2.80
2022-11-11T13:50:04.276Z,2.70
2022-11-11T13:52:35.593Z,1.25
2022-11-11T13:55:04.877Z,0.28
2022-11-11T13:57:32.989Z,5.15
2022-11-11T14:00:05.289Z,2.65
2022-11-11T14:02:34.412Z,1.25
2022-11-11T14:05:03.980Z,2.33
2022-11-11T14:09:58.259Z,1.10
2022-11-11T14:12:38.145Z,2.88
2022-11-11T14:15:08.054Z,2.88
2022-11-11T14:17:43.281Z,6.03
2022-11-11T14:20:28.100Z,3.72
2022-11-11T14:22:54.401Z,2.00
2022-11-11T14:25:24.247Z,3.00
2022-11-11T14:27:50.550Z,7.32
2022-11-11T14:30:33.072Z,1.33
2022-11-11T14:33:08.268Z,3.38
2022-11-11T14:35:44.801Z,3.65
2022-11-11T14:38:23.854Z,3.15
2022-11-11T14:40:50.155Z,2.10
2022-11-11T14:43:35.374Z,1.30
2022-11-11T14:46:02.910Z,1.63
2022-11-11T14:48:47.913Z,10.40
2022-11-11T14:51:32.997Z,3.55
2022-11-11T14:53:59.668Z,1.42
2022-11-11T14:56:27.736Z,3.42
2022-11-11T14:58:54.637Z,3.00
2022-11-11T15:01:21.764Z,0.90
2022-11-11T15:03:50.170Z,3.17
2022-11-11T15:06:35.337Z,4.90
2022-11-11T15:09:15.431Z,3.75
2022-11-11T15:11:47.041Z,1.92
2022-11-11T15:14:25.382Z,2.20
2022-11-11T15:17:10.576Z,1.10
2022-11-11T15:19:50.579Z,3.40
2022-11-11T15:22:32.156Z,2.20
2022-11-11T15:25:11.409Z,7.10
2022-11-11T15:27:59.625Z,3.60
2022-11-11T15:30:40.672Z,4.18
2022-11-11T15:33:26.002Z,8.18
2022-11-11T15:36:09.538Z,6.53
2022-11-11T15:38:37.255Z,9.50
2022-11-11T15:41:03.644Z,11.57
2022-11-11T15:43:31.561Z,3.85
2022-11-11T15:45:59.528Z,3.83
2022-11-11T15:48:30.555Z,3.78
2022-11-11T15:50:57.002Z,5.68
2022-11-11T15:53:28.805Z,11.85
2022-11-11T15:55:56.147Z,8.60
2022-11-11T15:58:25.595Z,4.80
2022-11-11T16:00:53.030Z,6.18
2022-11-11T16:03:25.450Z,4.47
2022-11-11T16:05:51.789Z,5.47
2022-11-11T16:08:23.034Z,5.07
2022-11-11T16:10:57.655Z,5.50
2022-11-11T16:13:32.833Z,14.45
2022-11-11T16:16:09.532Z,4.70
2022-11-11T16:18:40.970Z,4.85
2022-11-11T16:21:10.531Z,7.68
2022-11-11T16:23:37.473Z,3.97
2022-11-11T16:26:05.000Z,3.10
2022-11-11T16:28:36.915Z,4.40
2022-11-11T16:31:21.653Z,5.88
2022-11-11T16:33:47.965Z,3.08
2022-11-11T16:36:14.389Z,2.58
2022-11-11T16:38:41.039Z,5.18
2022-11-11T16:41:28.081Z,2.30
2022-11-11T16:43:55.894Z,4.47
2022-11-11T16:46:39.274Z,7.40
2022-11-11T16:49:25.990Z,4.95
2022-11-11T16:51:52.610Z,4.72
2022-11-11T16:54:21.462Z,4.93
2022-11-11T16:56:50.522Z,10.93
2022-11-11T16:59:22.044Z,5.03
2022-11-11T17:01:48.550Z,5.70
2022-11-11T17:04:15.115Z,3.30
2022-11-11T17:06:47.434Z,5.57
2022-11-11T17:09:32.589Z,5.43
2022-11-11T17:11:58.877Z,5.30
2022-11-11T17:14:26.412Z,6.53
2022-11-11T17:16:52.708Z,8.68
2022-11-11T17:19:19.247Z,9.35
2022-11-11T17:21:45.730Z,8.32
2022-11-11T17:24:14.474Z,5.50
2022-11-11T17:26:41.676Z,5.72
2022-11-11T17:29:10.318Z,6.70
2022-11-11T17:31:37.965Z,6.40
2022-11-11T17:34:07.713Z,4.57
2022-11-11T17:36:34.122Z,3.70
2022-11-11T17:39:00.630Z,4.88
2022-11-11T17:41:26.986Z,5.80
2022-11-11T17:43:53.373Z,7.38
2022-11-11T17:46:19.787Z,5.47
2022-11-11T17:48:46.129Z,7.85
2022-11-11T17:51:12.416Z,5.65
2022-11-11T17:53:38.886Z,4.25
2022-11-11T17:56:07.284Z,6.07
2022-11-11T17:58:40.985Z,6.10
2022-11-11T18:01:12.523Z,5.68
2022-11-11T18:03:38.908Z,11.90
2022-11-11T18:06:05.362Z,7.20
2022-11-11T18:08:31.748Z,15.80
2022-11-11T18:11:01.542Z,10.82
2022-11-11T18:13:28.416Z,15.75
2022-11-11T18:16:00.270Z,26.45
2022-11-11T18:18:30.169Z,18.27
2022-11-11T18:21:03.692Z,21.23
2022-11-11T18:23:31.506Z,13.23
2022-11-11T18:25:57.803Z,12.73
2022-11-11T18:28:24.096Z,13.27
2022-11-11T18:30:50.391Z,9.98
2022-11-11T18:33:16.652Z,5.80
2022-11-11T18:35:43.376Z,9.02
2022-11-11T18:38:09.642Z,6.88
2022-11-11T18:40:35.934Z,11.20
2022-11-11T18:43:02.232Z,6.38
2022-11-11T18:45:29.468Z,6.15
2022-11-11T18:47:56.142Z,6.13
2022-11-11T18:50:22.413Z,9.73
2022-11-11T18:52:48.685Z,6.97
2022-11-11T18:55:14.984Z,6.40
2022-11-11T18:57:41.385Z,4.68
2022-11-11T19:00:08.180Z,6.45
2022-11-11T19:02:34.470Z,14.55
2022-11-11T19:05:00.755Z,10.90
2022-11-11T19:07:27.173Z,6.97
2022-11-11T19:09:53.478Z,7.53
2022-11-11T19:12:19.817Z,7.25
2022-11-11T19:14:46.211Z,6.35
2022-11-11T19:17:12.552Z,7.75
2022-11-11T19:19:38.899Z,7.10
2022-11-11T19:22:05.259Z,7.70
2022-11-11T19:24:33.974Z,7.40
2022-11-11T19:27:00.504Z,10.25
2022-11-11T19:29:28.110Z,10.95
2022-11-11T19:31:54.512Z,11.07
2022-11-11T19:34:20.966Z,6.75
2022-11-11T19:36:47.267Z,10.35
2022-11-11T19:39:13.668Z,7.43
2022-11-11T19:41:39.958Z,10.73
2022-11-11T19:44:06.211Z,7.80
2022-11-11T19:46:35.652Z,7.50
2022-11-11T19:49:01.906Z,9.27
2022-11-11T19:51:29.449Z,8.25
2022-11-11T19:53:57.377Z,18.48
2022-11-11T19:56:24.766Z,10.70
2022-11-11T19:58:51.227Z,6.63
2022-11-11T20:01:19.180Z,8.93
2022-11-11T20:03:46.000Z,7.07
2022-11-11T20:06:26.317Z,11.98
2022-11-11T20:08:53.434Z,6.85
2022-11-11T20:11:20.762Z,8.85
2022-11-11T20:13:47.786Z,9.82
2022-11-11T20:16:14.331Z,7.93
2022-11-11T20:18:40.644Z,9.68
2022-11-11T20:21:07.280Z,11.65
2022-11-11T20:23:37.184Z,13.30
2022-11-11T20:26:07.409Z,14.20
2022-11-11T20:28:33.684Z,17.30
2022-11-11T20:31:04.973Z,18.42
2022-11-11T20:33:31.244Z,13.90
2022-11-11T20:36:00.450Z,21.08
2022-11-11T20:38:28.419Z,17.23
2022-11-11T20:40:58.380Z,14.95
2022-11-11T20:43:24.895Z,13.32
2022-11-11T20:45:51.300Z,15.15
2022-11-11T20:48:17.564Z,13.95
2022-11-11T20:50:43.846Z,14.90
2022-11-11T20:53:10.196Z,16.27
2022-11-11T20:55:36.502Z,15.48
2022-11-11T20:58:02.824Z,16.13
2022-11-11T21:00:29.175Z,46.67
2022-11-11T21:02:55.495Z,39.25
2022-11-11T21:05:21.769Z,16.25
2022-11-11T21:07:48.824Z,22.48
2022-11-11T21:10:15.298Z,23.38
2022-11-11T21:12:41.568Z,22.90
2022-11-11T21:15:08.229Z,17.70
2022-11-11T21:17:34.520Z,24.38
2022-11-11T21:20:00.805Z,18.10
2022-11-11T21:22:27.098Z,33.50
2022-11-11T21:24:53.430Z,25.80
2022-11-11T21:27:19.709Z,28.80
2022-11-11T21:29:46.071Z,20.88
2022-11-11T21:32:12.355Z,21.02
2022-11-11T21:34:38.632Z,23.85
2022-11-11T21:37:04.928Z,17.92
2022-11-11T21:39:31.285Z,20.83
2022-11-11T21:41:57.575Z,21.83
2022-11-11T21:44:23.842Z,19.77
2022-11-11T21:46:50.150Z,19.83
2022-11-11T21:49:16.440Z,19.23
2022-11-11T21:51:42.715Z,17.65
2022-11-11T21:54:09.936Z,21.83
2022-11-11T21:56:37.338Z,18.00
2022-11-11T21:59:04.772Z,20.60
2022-11-11T22:01:34.140Z,16.90
2022-11-11T22:04:01.997Z,16.48
2022-11-11T22:06:28.690Z,19.52
2022-11-11T22:08:55.726Z,17.02
2022-11-11T22:11:23.739Z,16.92
2022-11-11T22:13:50.190Z,16.33
2022-11-11T22:16:17.753Z,22.77
2022-11-11T22:18:44.912Z,24.55
2022-11-11T22:21:20.622Z,22.70
2022-11-11T22:23:50.856Z,22.88
2022-11-11T22:26:18.072Z,25.73
2022-11-11T22:28:47.298Z,22.58
2022-11-11T22:31:17.810Z,27.98
2022-11-11T22:33:44.626Z,21.40
2022-11-11T22:36:12.676Z,21.35
2022-11-11T22:38:39.308Z,20.67
2022-11-11T22:41:10.234Z,36.28
2022-11-11T22:43:58.540Z,22.15
2022-11-11T22:46:24.591Z,20.92
2022-11-11T22:48:54.818Z,28.48
2022-11-11T22:51:21.677Z,23.38
2022-11-11T22:53:48.016Z,37.75
2022-11-11T22:56:15.812Z,31.20
2022-11-11T22:58:44.498Z,40.78
2022-11-11T23:01:10.776Z,22.98
2022-11-11T23:03:38.374Z,27.73
2022-11-11T23:06:05.865Z,35.33
2022-11-11T23:08:32.619Z,28.70
2022-11-11T23:11:13.000Z,29.27
2022-11-11T23:13:39.690Z,25.45
2022-11-11T23:16:06.849Z,27.42
2022-11-11T23:18:33.560Z,22.58
2022-11-11T23:21:01.044Z,24.73
2022-11-11T23:23:27.589Z,26.40
2022-11-11T23:25:54.388Z,23.38
2022-11-11T23:28:21.489Z,24.15
2022-11-11T23:30:48.140Z,27.15
2022-11-11T23:33:14.417Z,19.85
2022-11-11T23:35:40.706Z,21.92
2022-11-11T23:38:06.999Z,19.25
2022-11-11T23:40:33.341Z,17.83
2022-11-11T23:42:59.611Z,18.95
2022-11-11T23:45:25.918Z,23.13
2022-11-11T23:47:52.279Z,22.67
2022-11-11T23:50:18.544Z,20.23
2022-11-11T23:52:44.870Z,28.17
2022-11-11T23:55:11.180Z,20.77
2022-11-11T23:57:37.446Z,19.05
